Time;durP1;ratioP1;P1;durP2;ratioP2;P2;SDS_P1;SDS_P2;PMS_P1;PMS_P2;Temp;Humidity;BMP_temperature;BMP_pressure;BME280_temperature;BME280_humidity;BME280_pressure;Samples;Min_cycle;Max_cycle;Signal;HPM_P1;HPM_P2
2021/01/27 05:01:39;;;;;;;12.38;7.15;;;;;;;1.39;74.31;99964.13;5390180;23;19993;-60
2021/01/27 05:05:09;;;;;;;14.25;9.25;;;;;;;1.49;74.68;99969.31;4948357;28;20043;-61
2021/01/27 05:08:04;;;;;;;12.05;7.50;;;;;;;1.36;75.06;99962.66;4832512;29;20040;-61
2021/01/27 05:10:38;;;;;;;14.50;8.73;;;;;;;1.40;75.50;99971.09;4815906;29;20041;-60
2021/01/27 05:13:17;;;;;;;15.55;9.60;;;;;;;1.38;75.60;99978.47;4926317;28;20125;-61
2021/01/27 05:15:43;;;;;;;15.00;9.00;;;;;;;1.49;75.38;99971.97;4964749;28;20046;-60
2021/01/27 05:18:12;;;;;;;14.52;8.43;;;;;;;1.53;75.78;99968.78;4932721;28;20046;-60
2021/01/27 05:20:38;;;;;;;16.85;9.00;;;;;;;1.38;76.63;99963.31;4945479;28;20171;-59
2021/01/27 05:23:04;;;;;;;14.32;8.73;;;;;;;1.34;76.87;99963.81;4944121;28;20169;-61
2021/01/27 05:25:43;;;;;;;21.90;9.15;;;;;;;1.43;76.88;99960.13;4933049;28;20503;-61
2021/01/27 05:28:16;;;;;;;18.75;9.77;;;;;;;1.33;76.21;99954.97;4930713;28;20046;-59
2021/01/27 05:30:51;;;;;;;15.82;9.43;;;;;;;1.37;76.97;99951.00;4929495;28;20051;-60
2021/01/27 05:33:18;;;;;;;17.20;9.18;;;;;;;1.28;77.13;99946.63;4917504;29;20273;-60
2021/01/27 05:35:44;;;;;;;21.70;9.35;;;;;;;1.21;76.88;99940.31;4906052;29;20046;-60
2021/01/27 05:38:31;;;;;;;16.95;9.05;;;;;;;1.27;77.11;99934.31;4894331;29;20055;-60
2021/01/27 05:41:27;;;;;;;15.25;9.02;;;;;;;1.33;76.79;99930.16;4919721;29;20393;-60
2021/01/27 05:44:05;;;;;;;21.38;9.57;;;;;;;1.04;77.28;99935.97;4923408;29;20051;-60
2021/01/27 05:46:33;;;;;;;14.32;8.15;;;;;;;1.04;76.74;99947.44;4929875;29;20715;-60
2021/01/27 05:49:00;;;;;;;16.58;9.55;;;;;;;0.96;77.04;99944.78;4911148;29;20046;-60
2021/01/27 05:51:33;;;;;;;15.90;8.90;;;;;;;0.69;77.94;99937.09;4911365;29;20044;-60
2021/01/27 05:54:00;;;;;;;17.88;8.85;;;;;;;0.81;77.69;99938.41;4910333;29;20122;-59
2021/01/27 05:56:28;;;;;;;22.98;10.25;;;;;;;0.83;77.74;99939.09;4911461;29;20155;-60
2021/01/27 05:59:01;;;;;;;19.15;9.18;;;;;;;0.81;78.20;99946.41;4924666;29;20568;-60
2021/01/27 06:01:46;;;;;;;16.48;10.05;;;;;;;0.89;77.72;99948.28;4910208;29;20500;-60
2021/01/27 06:04:12;;;;;;;18.90;9.10;;;;;;;0.90;78.87;99937.47;4909569;29;20063;-61
2021/01/27 06:06:53;;;;;;;14.07;8.57;;;;;;;0.90;78.64;99937.47;4908780;29;20255;-60
2021/01/27 06:09:31;;;;;;;14.57;8.73;;;;;;;0.99;77.83;99939.13;4913052;29;20043;-60
2021/01/27 06:12:05;;;;;;;17.13;8.98;;;;;;;0.99;77.80;99939.13;4909563;29;20040;-60
2021/01/27 06:14:31;;;;;;;17.13;8.95;;;;;;;1.12;76.61;99936.00;4908886;29;20356;-61
2021/01/27 06:16:56;;;;;;;18.75;10.07;;;;;;;1.23;77.20;99941.00;4894723;29;20056;-61
2021/01/27 06:19:25;;;;;;;18.08;10.15;;;;;;;1.03;76.74;99937.81;4909203;29;20078;-60
2021/01/27 06:22:13;;;;;;;18.23;10.68;;;;;;;1.38;78.03;99933.19;4890597;29;20058;-61
2021/01/27 06:24:57;;;;;;;14.68;8.82;;;;;;;1.29;77.16;99934.16;4905157;29;20524;-59
2021/01/27 06:27:42;;;;;;;17.15;10.32;;;;;;;1.22;77.97;99939.31;4893745;29;20121;-60
2021/01/27 06:30:16;;;;;;;16.85;9.95;;;;;;;1.25;77.97;99939.00;4892380;29;20048;-60
2021/01/27 06:33:04;;;;;;;20.20;9.30;;;;;;;1.24;79.14;99941.81;4907633;29;20508;-60
2021/01/27 06:36:12;;;;;;;13.43;8.52;;;;;;;1.32;78.63;99950.66;4888972;29;20043;-61
2021/01/27 06:39:25;;;;;;;13.25;8.63;;;;;;;1.30;78.91;99952.63;4911228;29;20051;-60
2021/01/27 06:42:06;;;;;;;15.07;8.20;;;;;;;1.24;79.24;99952.47;4873335;29;20047;-60
2021/01/27 06:44:42;;;;;;;19.75;8.52;;;;;;;1.24;79.27;99955.97;4872041;29;20044;-61
2021/01/27 06:47:23;;;;;;;19.45;8.48;;;;;;;1.18;78.94;99961.94;4942555;28;20046;-60
2021/01/27 06:50:00;;;;;;;12.43;6.80;;;;;;;1.26;78.91;99947.81;4932303;28;20408;-61
2021/01/27 06:52:26;;;;;;;16.80;9.70;;;;;;;1.39;78.70;99951.63;4928690;28;20043;-60
2021/01/27 06:55:18;;;;;;;14.52;8.80;;;;;;;1.28;79.07;99946.63;4938262;28;20046;-60
2021/01/27 06:58:14;;;;;;;18.13;10.13;;;;;;;1.28;78.75;99951.97;4928746;29;20524;-60
2021/01/27 07:00:49;;;;;;;16.17;8.38;;;;;;;1.32;79.05;99952.47;4932381;29;20094;-60
2021/01/27 07:03:37;;;;;;;17.02;9.80;;;;;;;1.23;78.54;99950.81;4910374;29;20047;-60
2021/01/27 07:06:27;;;;;;;15.65;8.73;;;;;;;1.19;79.42;99960.13;4928585;29;20520;-60
2021/01/27 07:09:15;;;;;;;18.20;9.15;;;;;;;1.21;78.52;99958.13;4912470;29;20046;-60
2021/01/27 07:11:56;;;;;;;13.80;9.10;;;;;;;1.21;78.38;99960.78;4915205;29;20134;-61
2021/01/27 07:14:36;;;;;;;19.17;10.18;;;;;;;1.28;78.27;99957.28;4910186;29;20520;-61
2021/01/27 07:17:31;;;;;;;15.95;8.95;;;;;;;1.33;78.41;99956.81;4892506;29;20083;-60
2021/01/27 07:20:13;;;;;;;17.98;8.25;;;;;;;1.44;78.14;99959.97;4889148;29;20046;-59
2021/01/27 07:23:00;;;;;;;22.00;10.55;;;;;;;1.35;77.10;99957.47;4892822;29;20505;-60
2021/01/27 07:25:48;;;;;;;16.33;8.85;;;;;;;1.44;78.13;99959.97;4895630;29;20036;-60
2021/01/27 07:28:22;;;;;;;16.23;7.90;;;;;;;1.45;77.70;99972.28;4885993;29;20050;-61
2021/01/27 07:31:04;;;;;;;13.93;8.18;;;;;;;1.47;77.70;99957.97;4913856;29;20043;-60
2021/01/27 07:33:57;;;;;;;15.95;9.70;;;;;;;1.62;78.33;99967.78;4911026;29;20571;-61
2021/01/27 07:36:32;;;;;;;18.63;11.07;;;;;;;1.71;77.16;99958.81;4907562;29;20459;-60
2021/01/27 07:39:02;;;;;;;13.23;8.18;;;;;;;1.68;77.47;99964.47;4927804;29;20043;-60
2021/01/27 07:41:47;;;;;;;17.48;10.05;;;;;;;1.83;76.88;99967.28;4927644;28;20046;-60
2021/01/27 07:44:17;;;;;;;24.90;10.07;;;;;;;1.75;76.18;99960.09;4928180;28;20043;-60
2021/01/27 07:47:31;;;;;;;17.67;10.65;;;;;;;1.84;75.68;99968.94;4930595;29;20043;-60
2021/01/27 07:49:58;;;;;;;20.58;10.32;;;;;;;1.82;75.64;99965.63;4883893;29;20114;-61
2021/01/27 07:52:32;;;;;;;20.00;10.25;;;;;;;1.86;75.04;99960.75;4915493;29;20042;-61
2021/01/27 07:55:22;;;;;;;15.38;9.98;;;;;;;2.06;74.50;99960.25;4915769;29;20047;-60
2021/01/27 07:58:03;;;;;;;14.95;9.25;;;;;;;2.01;77.03;99961.75;4913806;29;20436;-61
2021/01/27 08:00:32;;;;;;;20.48;11.18;;;;;;;2.05;75.69;99966.56;4914281;29;20054;-60
2021/01/27 08:03:01;;;;;;;18.08;10.88;;;;;;;2.10;75.15;99966.88;4914175;29;20050;-61
2021/01/27 08:05:34;;;;;;;19.92;11.75;;;;;;;2.06;75.88;99964.75;4913325;29;20102;-60
2021/01/27 08:08:11;;;;;;;16.13;9.43;;;;;;;2.03;77.12;99963.25;4929857;29;20497;-61
2021/01/27 08:10:38;;;;;;;18.02;9.93;;;;;;;2.12;76.86;99959.53;4938479;28;20571;-61
2021/01/27 08:13:07;;;;;;;17.15;9.80;;;;;;;2.13;77.46;99961.22;4932600;28;20046;-60
2021/01/27 08:15:32;;;;;;;18.75;10.15;;;;;;;2.13;77.14;99958.53;4915983;29;20433;-63
2021/01/27 08:18:12;;;;;;;19.13;11.48;;;;;;;2.03;76.66;99962.41;4914715;29;20053;-60
2021/01/27 08:20:42;;;;;;;20.77;10.77;;;;;;;2.04;77.08;99964.06;4928236;29;20057;-60
2021/01/27 08:23:21;;;;;;;20.33;10.65;;;;;;;2.09;76.98;99959.88;4916847;29;20032;-60
2021/01/27 08:26:00;;;;;;;16.95;9.35;;;;;;;2.06;77.42;99968.25;4895102;29;20624;-60
2021/01/27 08:28:35;;;;;;;17.08;9.70;;;;;;;2.12;76.47;99964.03;4894172;29;20345;-60
2021/01/27 08:31:07;;;;;;;17.48;9.93;;;;;;;2.25;77.82;99964.34;4895046;29;20222;-60
2021/01/27 08:33:33;;;;;;;;;;;;;;;2.26;77.17;99959.84;4894893;29;20127;-62
2021/01/27 08:36:02;;;;;;;19.85;11.00;;;;;;;2.38;76.06;99953.97;4904341;29;20013;-61
2021/01/27 08:38:31;;;;;;;19.20;11.00;;;;;;;2.45;74.42;99957.59;4901791;29;20522;-60
2021/01/27 08:40:58;;;;;;;24.63;11.82;;;;;;;2.54;75.01;99953.88;4949075;28;20039;-61
2021/01/27 08:43:29;;;;;;;22.52;11.13;;;;;;;2.55;74.49;99958.22;4948216;28;20043;-60
2021/01/27 08:45:55;;;;;;;18.80;10.45;;;;;;;2.57;75.04;99954.53;4929295;29;20134;-61
2021/01/27 08:48:47;;;;;;;20.20;11.77;;;;;;;2.57;73.64;99952.72;4912928;29;20138;-60
2021/01/27 08:51:44;;;;;;;19.77;11.18;;;;;;;2.50;74.16;99957.91;4913164;29;20066;-61
2021/01/27 08:54:47;;;;;;;17.70;10.73;;;;;;;2.51;73.92;99953.41;4928461;29;20126;-61
2021/01/27 08:57:35;;;;;;;22.80;11.05;;;;;;;2.55;72.87;99955.53;4914041;29;20322;-61
2021/01/27 09:00:26;;;;;;;17.90;10.75;;;;;;;2.52;71.31;99968.44;4929196;28;20054;-62
2021/01/27 09:03:00;;;;;;;19.13;10.88;;;;;;;2.63;73.64;99964.53;4945545;29;20051;-60
2021/01/27 09:05:26;;;;;;;20.08;11.88;;;;;;;2.64;72.94;99958.19;4914815;29;20042;-60
2021/01/27 09:07:57;;;;;;;24.55;12.40;;;;;;;2.65;73.57;99965.19;4912250;29;20043;-61
2021/01/27 09:10:41;;;;;;;18.42;11.52;;;;;;;2.53;73.76;99959.41;4920505;28;20150;-61
2021/01/27 09:13:28;;;;;;;19.08;11.95;;;;;;;2.73;73.01;99955.31;4932012;28;20105;-61
2021/01/27 09:16:00;;;;;;;17.67;11.65;;;;;;;2.74;73.25;99962.31;4947271;28;20038;-61
2021/01/27 09:18:25;;;;;;;;;;;;;;;2.61;73.31;99953.19;4949794;28;20070;-61
2021/01/27 09:20:51;;;;;;;21.10;11.63;;;;;;;2.66;72.95;99946.31;4949092;28;19918;-61
2021/01/27 09:23:20;;;;;;;18.85;11.82;;;;;;;2.62;74.95;99952.19;4935692;29;20047;-60
2021/01/27 09:25:48;;;;;;;19.42;12.13;;;;;;;2.70;73.97;99950.31;4914362;29;20035;-61
2021/01/27 09:28:23;;;;;;;18.08;11.60;;;;;;;2.65;74.80;99957.19;4911116;29;20079;-61
2021/01/27 09:30:50;;;;;;;16.73;10.70;;;;;;;2.74;74.35;99951.63;4914196;29;20046;-61
2021/01/27 09:33:28;;;;;;;19.30;10.52;;;;;;;2.74;73.27;99948.97;4928593;29;20047;-60
2021/01/27 09:36:07;;;;;;;16.30;10.40;;;;;;;2.86;74.06;99946.72;4914292;29;20476;-60
2021/01/27 09:38:33;;;;;;;17.77;10.15;;;;;;;2.84;73.12;99944.22;4927492;29;20039;-61
2021/01/27 09:41:22;;;;;;;18.70;11.05;;;;;;;2.89;72.61;99938.34;4940433;28;20039;-60
2021/01/27 09:43:48;;;;;;;14.93;10.00;;;;;;;3.04;72.84;99943.78;4929223;28;20088;-61
2021/01/27 09:46:29;;;;;;;15.95;9.57;;;;;;;2.92;72.62;99936.16;4907492;29;20051;-61
2021/01/27 09:48:59;;;;;;;14.60;9.07;;;;;;;2.84;72.48;99941.56;4914431;29;20039;-61
2021/01/27 09:51:25;;;;;;;20.80;9.80;;;;;;;2.89;72.93;99939.19;4913367;29;20552;-61
2021/01/27 09:54:00;;;;;;;13.35;8.45;;;;;;;2.80;73.88;99929.56;4912776;29;20122;-60
2021/01/27 09:56:27;;;;;;;15.77;9.15;;;;;;;2.83;72.79;99933.72;4913959;29;20051;-61
2021/01/27 09:58:54;;;;;;;13.65;8.73;;;;;;;2.94;72.69;99935.16;4909153;29;20605;-60
2021/01/27 10:01:29;;;;;;;14.20;8.85;;;;;;;3.66;79.61;99930.28;4909401;29;20047;-60
2021/01/27 10:04:11;;;;;;;13.25;7.95;;;;;;;3.05;71.83;99924.06;4911319;29;20050;-60
2021/01/27 10:06:43;;;;;;;12.30;8.35;;;;;;;3.03;71.60;99924.25;4914139;29;20039;-60
2021/01/27 10:09:24;;;;;;;12.32;7.95;;;;;;;3.03;72.39;99926.91;4908073;29;20501;-61
2021/01/27 10:12:06;;;;;;;13.80;8.93;;;;;;;3.18;71.11;99929.66;4931956;28;20054;-61
2021/01/27 10:14:38;;;;;;;27.77;9.25;;;;;;;3.28;71.00;99924.91;4924130;29;20039;-60
2021/01/27 10:17:08;;;;;;;12.98;9.07;;;;;;;3.34;71.38;99926.03;4924780;29;20437;-61
2021/01/27 10:19:42;;;;;;;16.65;9.52;;;;;;;3.43;71.71;99907.09;4926654;29;20310;-62
2021/01/27 10:22:10;;;;;;;13.75;8.35;;;;;;;3.65;70.26;99900.03;4927907;29;20070;-61
2021/01/27 10:24:46;;;;;;;13.88;9.13;;;;;;;3.82;70.27;99906.84;4928448;29;20043;-61
2021/01/27 10:27:36;;;;;;;12.27;8.65;;;;;;;3.97;69.48;99901.53;4927280;29;20513;-61
2021/01/27 10:30:22;;;;;;;15.68;9.43;;;;;;;4.15;68.89;99907.34;4927358;29;20043;-61
2021/01/27 10:32:49;;;;;;;18.20;9.35;;;;;;;4.21;68.34;99900.41;4927041;29;20126;-62
2021/01/27 10:35:22;;;;;;;14.25;9.55;;;;;;;4.37;67.87;99902.91;4927596;29;20432;-61
2021/01/27 10:37:48;;;;;;;14.48;9.32;;;;;;;4.34;67.51;99890.72;4913757;29;20039;-61
2021/01/27 10:40:14;;;;;;;15.18;8.50;;;;;;;4.38;68.43;99893.03;4928278;28;20057;-61
2021/01/27 10:42:42;;;;;;;13.10;7.82;;;;;;;4.38;66.41;99893.88;4947100;28;20047;-60
2021/01/27 10:45:42;;;;;;;11.80;7.72;;;;;;;4.38;68.01;99893.88;4917483;29;20130;-60
2021/01/27 10:48:10;;;;;;;12.15;6.68;;;;;;;5.03;75.75;99899.13;4919064;29;20185;-61
2021/01/27 10:50:44;;;;;;;8.98;6.15;;;;;;;4.40;68.06;99890.97;4912166;29;20039;-60
2021/01/27 10:53:12;;;;;;;12.43;6.85;;;;;;;4.44;66.92;99887.75;4913154;29;20508;-60
2021/01/27 10:55:41;;;;;;;14.18;6.40;;;;;;;4.31;66.65;99883.06;4912862;29;20395;-61
2021/01/27 10:58:12;;;;;;;8.27;6.22;;;;;;;4.34;66.92;99877.34;4909490;29;20047;-61
2021/01/27 11:00:38;;;;;;;10.02;6.38;;;;;;;4.38;66.93;99876.97;4913246;29;20082;-60
2021/01/27 11:03:06;;;;;;;9.05;6.40;;;;;;;4.24;67.29;99876.81;4910294;29;20475;-61
2021/01/27 11:05:32;;;;;;;9.75;6.53;;;;;;;4.50;66.42;99878.97;4911215;29;20133;-61
2021/01/27 11:07:59;;;;;;;9.65;6.18;;;;;;;4.63;66.09;99870.25;4913291;29;20039;-60
2021/01/27 11:10:25;;;;;;;7.97;5.75;;;;;;;4.78;64.91;99863.00;4915889;28;20066;-60
2021/01/27 11:12:51;;;;;;;7.85;5.20;;;;;;;4.65;65.50;99874.41;4931905;28;20167;-60
2021/01/27 11:15:17;;;;;;;6.32;4.82;;;;;;;4.80;64.57;99860.16;4933300;29;20051;-61
2021/01/27 11:17:43;;;;;;;8.52;6.00;;;;;;;4.92;64.55;99862.13;4910263;29;20039;-60
2021/01/27 11:20:09;;;;;;;8.02;5.43;;;;;;;4.73;65.96;99855.53;4913157;29;20579;-61
2021/01/27 11:22:34;;;;;;;8.60;5.20;;;;;;;4.97;66.13;99856.19;4908100;29;20084;-61
2021/01/27 11:25:00;;;;;;;10.38;5.15;;;;;;;4.95;64.93;99848.38;4913964;29;20039;-61
2021/01/27 11:27:25;;;;;;;8.35;5.47;;;;;;;5.12;64.65;99840.03;4916810;29;20043;-61
2021/01/27 11:29:51;;;;;;;9.68;6.15;;;;;;;5.13;64.27;99847.06;4911167;29;20532;-62
2021/01/27 11:32:17;;;;;;;9.93;5.35;;;;;;;5.03;63.89;99836.69;4914765;29;20047;-60
2021/01/27 11:34:43;;;;;;;9.80;5.22;;;;;;;5.38;66.38;99833.06;4916819;29;20043;-59
2021/01/27 11:37:10;;;;;;;7.30;5.22;;;;;;;5.40;63.42;99832.88;4912370;29;20084;-60
2021/01/27 11:39:35;;;;;;;8.90;5.13;;;;;;;5.59;67.38;99826.81;4915653;28;20403;-59
2021/01/27 11:42:01;;;;;;;8.05;4.85;;;;;;;5.41;66.72;99818.44;4946045;28;20043;-59
2021/01/27 11:44:27;;;;;;;9.77;4.25;;;;;;;5.02;63.05;99811.72;4925246;29;20047;-59
2021/01/27 11:46:53;;;;;;;7.13;4.18;;;;;;;5.33;64.47;99818.56;4913306;29;20043;-58
2021/01/27 11:49:19;;;;;;;7.75;4.65;;;;;;;5.26;64.60;99807.81;4914529;29;20316;-59
2021/01/27 11:51:46;;;;;;;7.10;4.78;;;;;;;5.13;66.96;99805.03;4918765;29;20293;-59
2021/01/27 11:54:12;;;;;;;6.03;4.45;;;;;;;4.97;62.55;99811.47;4913450;29;20047;-59
2021/01/27 11:56:40;;;;;;;7.82;4.25;;;;;;;5.07;67.60;99806.63;4927148;29;20047;-60
2021/01/27 11:59:06;;;;;;;5.75;4.00;;;;;;;5.10;64.10;99806.22;4894553;29;20048;-59
2021/01/27 12:01:35;;;;;;;8.13;4.15;;;;;;;4.83;66.09;99809.72;4912774;29;20585;-60
2021/01/27 12:04:05;;;;;;;4.75;3.13;;;;;;;5.20;63.31;99795.16;4902573;29;20035;-60
2021/01/27 12:06:30;;;;;;;9.20;3.65;;;;;;;5.65;64.30;99796.53;4914771;29;20050;-59
2021/01/27 12:08:56;;;;;;;5.32;3.40;;;;;;;5.34;63.63;99794.25;4914278;29;20035;-60
2021/01/27 12:11:22;;;;;;;7.53;3.95;;;;;;;5.01;64.02;99791.31;4929219;28;20492;-59
2021/01/27 12:13:48;;;;;;;5.00;3.30;;;;;;;5.10;63.79;99794.69;4932498;28;20163;-59
2021/01/27 12:16:14;;;;;;;6.60;4.13;;;;;;;4.72;62.35;99795.00;4933382;28;20524;-62
2021/01/27 12:18:39;;;;;;;5.18;3.58;;;;;;;5.03;62.23;99802.69;4933956;28;20551;-62
2021/01/27 12:21:05;;;;;;;12.02;4.57;;;;;;;5.91;64.39;99795.03;4949396;28;20038;-59
2021/01/27 12:23:30;;;;;;;5.97;3.58;;;;;;;6.21;73.46;99804.47;4947078;28;20038;-59
2021/01/27 12:25:56;;;;;;;7.90;3.78;;;;;;;5.31;59.68;99799.16;4933043;28;20090;-59
2021/01/27 12:28:21;;;;;;;10.70;4.03;;;;;;;5.09;60.42;99795.69;4948419;28;20035;-59
2021/01/27 12:30:47;;;;;;;5.00;3.22;;;;;;;5.12;61.83;99798.00;4948124;28;20074;-60
2021/01/27 12:33:13;;;;;;;6.90;4.50;;;;;;;5.71;66.30;99793.06;4933556;28;20133;-60
2021/01/27 12:35:39;;;;;;;5.35;3.78;;;;;;;5.23;61.42;99791.28;4933451;28;20436;-60
2021/01/27 12:38:05;;;;;;;5.82;3.40;;;;;;;5.02;65.68;99795.66;4964817;28;20073;-60
2021/01/27 12:40:31;;;;;;;8.10;3.40;;;;;;;4.85;58.54;99783.53;4957830;28;20563;-59
2021/01/27 12:42:57;;;;;;;4.78;3.53;;;;;;;4.81;59.54;99795.69;4929986;29;20218;-59
2021/01/27 12:45:26;;;;;;;6.80;3.92;;;;;;;4.47;58.26;99788.34;4926788;29;20131;-59
2021/01/27 12:47:53;;;;;;;5.97;3.85;;;;;;;4.42;58.20;99793.41;4913773;29;20039;-59
2021/01/27 12:50:20;;;;;;;6.40;4.13;;;;;;;4.27;59.38;99782.75;4908874;29;20122;-59
2021/01/27 12:52:46;;;;;;;10.50;3.38;;;;;;;4.17;60.26;99786.75;4907613;29;20043;-59
2021/01/27 12:55:13;;;;;;;5.97;3.72;;;;;;;4.21;60.63;99783.53;4915472;29;20444;-59
2021/01/27 12:57:44;;;;;;;6.68;3.22;;;;;;;4.27;61.54;99796.13;4913354;29;20098;-59
2021/01/27 13:00:22;;;;;;;5.47;3.45;;;;;;;4.26;60.77;99799.84;4909426;29;20047;-60
2021/01/27 13:02:50;;;;;;;7.40;3.65;;;;;;;4.43;61.21;99794.25;4915048;29;20472;-59
2021/01/27 13:05:16;;;;;;;5.22;3.35;;;;;;;4.57;60.74;99788.84;4912303;29;20055;-59
2021/01/27 13:07:42;;;;;;;8.13;3.53;;;;;;;4.57;60.23;99791.53;4913719;29;20032;-59
2021/01/27 13:10:08;;;;;;;4.47;3.28;;;;;;;4.73;66.16;99783.22;4918726;28;20456;-61
2021/01/27 13:12:36;;;;;;;6.88;3.00;;;;;;;5.49;73.13;99780.75;4929745;28;20070;-59
2021/01/27 13:15:05;;;;;;;5.32;3.90;;;;;;;5.09;60.93;99780.44;4920703;29;20130;-60
2021/01/27 13:17:30;;;;;;;3.95;2.97;;;;;;;5.47;67.46;99778.25;4931142;29;20039;-60
2021/01/27 13:19:56;;;;;;;6.20;3.45;;;;;;;5.52;60.33;99774.16;4910529;29;20043;-61
2021/01/27 13:22:21;;;;;;;4.38;2.97;;;;;;;5.35;58.62;99782.50;4913454;29;20126;-60
2021/01/27 13:24:47;;;;;;;7.35;2.70;;;;;;;5.75;63.89;99780.09;4911226;29;20117;-59
2021/01/27 13:27:12;;;;;;;4.80;3.03;;;;;;;5.35;61.88;99784.34;4911465;29;20039;-60
2021/01/27 13:29:38;;;;;;;3.45;2.85;;;;;;;6.00;66.91;99778.56;4911540;29;20047;-59
2021/01/27 13:32:04;;;;;;;3.75;2.75;;;;;;;5.37;61.43;99790.34;4911336;29;20071;-60
2021/01/27 13:34:29;;;;;;;4.70;3.13;;;;;;;5.08;62.07;99780.66;4912279;29;20058;-59
2021/01/27 13:36:55;;;;;;;3.30;2.55;;;;;;;5.02;58.65;99776.06;4911386;29;20590;-59
2021/01/27 13:39:21;;;;;;;5.20;2.92;;;;;;;5.08;65.15;99776.13;4926909;29;20043;-60
2021/01/27 13:41:46;;;;;;;4.07;3.08;;;;;;;5.62;67.72;99766.59;4928237;28;20053;-60
2021/01/27 13:44:12;;;;;;;3.60;2.80;;;;;;;5.16;67.30;99761.75;4947331;28;20137;-59
2021/01/27 13:46:40;;;;;;;6.15;3.20;;;;;;;4.94;60.98;99758.31;4946721;28;20047;-61
2021/01/27 13:49:09;;;;;;;5.00;3.42;;;;;;;5.21;65.85;99762.00;4943333;28;20137;-59
2021/01/27 13:51:35;;;;;;;6.72;3.40;;;;;;;5.03;64.32;99750.94;4946796;28;20512;-58
2021/01/27 13:54:00;;;;;;;4.15;3.00;;;;;;;4.84;60.44;99751.63;4945904;28;20043;-59
2021/01/27 13:56:26;;;;;;;5.07;3.13;;;;;;;4.65;61.40;99751.25;4890977;29;20082;-58
2021/01/27 13:58:51;;;;;;;5.75;3.33;;;;;;;4.62;60.99;99748.09;4891278;29;20074;-59
2021/01/27 14:01:17;;;;;;;6.80;3.42;;;;;;;4.57;60.56;99747.88;4910718;29;20179;-58
2021/01/27 14:03:43;;;;;;;5.53;3.20;;;;;;;4.46;61.22;99748.38;4893341;29;20249;-59
2021/01/27 14:06:09;;;;;;;3.83;3.13;;;;;;;4.34;61.70;99745.38;4891501;29;20040;-58
2021/01/27 14:08:35;;;;;;;5.53;2.97;;;;;;;4.40;61.13;99747.28;4908945;29;20094;-59
2021/01/27 14:11:03;;;;;;;5.00;3.03;;;;;;;4.21;61.20;99746.06;4913217;29;20282;-58
2021/01/27 14:13:29;;;;;;;4.05;2.83;;;;;;;4.26;62.67;99741.00;4928299;29;20571;-59
2021/01/27 14:15:55;;;;;;;3.97;2.85;;;;;;;4.16;61.98;99743.13;4910962;29;20047;-59
2021/01/27 14:18:21;;;;;;;4.50;2.80;;;;;;;4.04;64.50;99733.91;4910820;29;20047;-59
2021/01/27 14:20:47;;;;;;;4.72;2.55;;;;;;;4.04;60.77;99730.44;4929237;29;20074;-59
2021/01/27 14:23:15;;;;;;;3.33;2.58;;;;;;;4.18;61.66;99732.22;4914327;29;20047;-59
2021/01/27 14:25:42;;;;;;;3.65;2.70;;;;;;;4.14;61.97;99729.13;4926570;29;20493;-59
2021/01/27 14:28:08;;;;;;;6.07;2.45;;;;;;;4.14;60.14;99731.81;4919550;29;20050;-59
2021/01/27 14:30:40;;;;;;;4.18;2.60;;;;;;;4.04;63.17;99733.13;4911965;29;20043;-60
2021/01/27 14:33:07;;;;;;;4.50;2.92;;;;;;;4.03;60.74;99726.13;4910659;29;20530;-58
2021/01/27 14:35:32;;;;;;;4.18;2.17;;;;;;;3.98;59.79;99724.00;4914534;29;20039;-58
2021/01/27 14:37:58;;;;;;;5.35;2.40;;;;;;;4.03;60.57;99724.28;4914257;29;20535;-59
2021/01/27 14:40:25;;;;;;;7.15;2.25;;;;;;;3.86;61.20;99715.63;4911687;29;20066;-59
2021/01/27 14:42:51;;;;;;;3.05;2.40;;;;;;;3.72;62.81;99721.00;4909213;29;20106;-59
2021/01/27 14:45:17;;;;;;;5.15;2.78;;;;;;;3.69;63.72;99716.88;4907585;29;20130;-59
2021/01/27 14:47:42;;;;;;;2.63;2.00;;;;;;;3.52;63.12;99720.75;4913265;29;20039;-59
2021/01/27 14:50:10;;;;;;;7.00;3.05;;;;;;;3.59;62.27;99718.97;4906672;29;20296;-58
2021/01/27 14:52:35;;;;;;;5.97;3.20;;;;;;;3.68;62.08;99709.03;4893683;29;20481;-59
2021/01/27 14:55:01;;;;;;;4.50;2.30;;;;;;;3.53;64.62;99714.38;4893603;29;20058;-59
2021/01/27 14:57:26;;;;;;;5.57;2.40;;;;;;;3.27;66.38;99706.84;4893763;29;20031;-61
2021/01/27 14:59:52;;;;;;;4.55;2.30;;;;;;;3.18;66.80;99700.78;4892343;29;20501;-61
2021/01/27 15:02:20;;;;;;;4.22;2.33;;;;;;;3.09;67.55;99703.72;4892618;29;20040;-61
2021/01/27 15:04:49;;;;;;;2.55;1.98;;;;;;;3.01;67.57;99701.94;4892087;29;20043;-61
2021/01/27 15:07:16;;;;;;;3.22;1.90;;;;;;;2.90;68.13;99705.06;4891026;29;20047;-60
2021/01/27 15:09:41;;;;;;;3.55;1.90;;;;;;;2.78;69.52;99698.50;4895226;28;20067;-59
2021/01/27 15:12:07;;;;;;;4.45;2.80;;;;;;;2.78;68.38;99699.34;4931336;28;20494;-60
2021/01/27 15:14:32;;;;;;;3.72;2.38;;;;;;;2.69;68.44;99696.94;4947715;28;20420;-60
2021/01/27 15:16:58;;;;;;;2.50;1.70;;;;;;;2.58;68.35;99687.50;4947520;28;20047;-60
2021/01/27 15:19:24;;;;;;;3.00;2.38;;;;;;;2.47;68.05;99690.63;4946886;28;20053;-59
2021/01/27 15:21:49;;;;;;;3.40;2.20;;;;;;;2.41;68.06;99684.19;4946875;28;20038;-60
2021/01/27 15:24:15;;;;;;;2.78;1.80;;;;;;;2.42;68.83;99675.13;4946923;28;20523;-60
2021/01/27 15:26:41;;;;;;;4.95;2.47;;;;;;;2.33;68.96;99670.06;4937694;29;20498;-59
2021/01/27 15:29:07;;;;;;;4.65;2.28;;;;;;;2.15;68.66;99679.19;4899414;29;20061;-59
2021/01/27 15:31:33;;;;;;;3.60;2.55;;;;;;;2.11;69.69;99677.88;4909975;29;20043;-59
2021/01/27 15:33:58;;;;;;;5.50;2.70;;;;;;;1.98;70.83;99679.47;4922975;29;20069;-59
2021/01/27 15:36:24;;;;;;;5.20;2.95;;;;;;;1.97;71.47;99677.81;4912015;29;20046;-59
2021/01/27 15:38:50;;;;;;;8.07;2.80;;;;;;;1.92;71.08;99681.03;4927534;29;20043;-60
2021/01/27 15:41:15;;;;;;;4.25;3.08;;;;;;;1.84;71.11;99672.25;4908197;29;20529;-59
2021/01/27 15:43:41;;;;;;;4.57;2.72;;;;;;;1.73;71.64;99676.16;4909571;29;20074;-59
2021/01/27 15:46:07;;;;;;;6.07;4.47;;;;;;;1.72;71.23;99663.84;4911404;29;20043;-60
2021/01/27 15:48:32;;;;;;;4.85;3.35;;;;;;;1.68;71.48;99659.84;4939155;29;20114;-59
2021/01/27 15:50:58;;;;;;;8.68;3.47;;;;;;;1.63;70.61;99668.34;4909998;29;20405;-58
2021/01/27 15:53:24;;;;;;;10.73;4.63;;;;;;;1.40;70.34;99667.47;4921340;29;20051;-60
2021/01/27 15:55:50;;;;;;;6.10;3.58;;;;;;;1.34;71.21;99665.53;4911994;29;20063;-59
2021/01/27 15:58:18;;;;;;;7.68;4.25;;;;;;;1.30;70.27;99658.88;4927995;29;20031;-59
2021/01/27 16:00:44;;;;;;;8.70;4.07;;;;;;;1.25;71.03;99666.56;4925984;29;20573;-59
2021/01/27 16:03:11;;;;;;;7.85;4.10;;;;;;;1.19;71.11;99676.06;4927559;29;20051;-59
2021/01/27 16:05:39;;;;;;;7.13;3.88;;;;;;;1.05;71.50;99669.59;4943321;29;20059;-59
2021/01/27 16:08:06;;;;;;;11.48;4.78;;;;;;;1.05;70.97;99674.09;4912389;29;20098;-60
2021/01/27 16:10:33;;;;;;;17.02;8.95;;;;;;;1.35;76.08;99670.69;4906840;29;20536;-60
2021/01/27 16:13:01;;;;;;;20.33;10.25;;;;;;;1.42;71.98;99670.81;4928570;29;20342;-59
2021/01/27 16:15:30;;;;;;;16.58;9.55;;;;;;;1.44;71.98;99656.31;4911739;29;20047;-59
2021/01/27 16:17:56;;;;;;;16.17;7.80;;;;;;;1.56;71.35;99656.75;4912046;29;20074;-60
2021/01/27 16:20:22;;;;;;;17.08;8.57;;;;;;;1.49;71.02;99658.47;4911533;29;20071;-60
2021/01/27 16:22:50;;;;;;;14.95;7.28;;;;;;;1.55;71.32;99659.59;4918788;29;20526;-60
2021/01/27 16:25:20;;;;;;;15.40;7.07;;;;;;;1.47;72.64;99662.31;4902652;29;20047;-60
2021/01/27 16:27:45;;;;;;;13.40;6.65;;;;;;;1.47;73.01;99664.97;4896674;29;20099;-59
2021/01/27 16:30:12;;;;;;;12.93;7.50;;;;;;;1.43;71.51;99672.47;4896117;29;20040;-59
2021/01/27 16:32:37;;;;;;;14.25;7.50;;;;;;;1.34;71.06;99668.19;4894274;29;20048;-59
2021/01/27 16:35:03;;;;;;;10.00;6.65;;;;;;;1.28;72.13;99667.03;4892567;29;20039;-60
2021/01/27 16:37:29;;;;;;;14.95;6.38;;;;;;;1.30;72.18;99670.34;4896360;29;20046;-60
2021/01/27 16:39:56;;;;;;;11.00;6.35;;;;;;;1.16;72.33;99664.91;4901061;28;20043;-60
2021/01/27 16:42:22;;;;;;;11.77;5.70;;;;;;;0.89;73.08;99674.16;4940718;28;20057;-60
2021/01/27 16:44:49;;;;;;;10.93;5.97;;;;;;;0.75;72.49;99673.03;4921972;29;20448;-60
2021/01/27 16:47:17;;;;;;;11.32;5.30;;;;;;;0.84;73.33;99674.66;4929059;29;20098;-59
2021/01/27 16:49:43;;;;;;;10.10;6.85;;;;;;;0.64;73.78;99673.38;4911413;29;20035;-60
2021/01/27 16:52:09;;;;;;;9.68;5.75;;;;;;;0.66;73.36;99680.19;4914991;29;20055;-59
2021/01/27 16:54:35;;;;;;;11.95;6.82;;;;;;;0.56;74.60;99681.38;4912241;29;20058;-60
2021/01/27 16:57:04;;;;;;;10.18;6.13;;;;;;;0.54;73.88;99683.38;4916899;29;20047;-59